Craig, CO

4:40 PM MDT on April 25, 2017 (GMT -0600)
Craig-Moffat

Weather History for KCAG - April, 2013

Change the Weather History Date:

Wednesday, April 17, 2013

  Actual Average Record
Temperature  
Mean Temperature 20 °F 43 °F  
Max Temperature 27 °F 58 °F 72 °F (2001)
Min Temperature 13 °F 28 °F 13 °F (2013)
Degree Days  
Heating Degree Days 45 22  
Month to date heating degree days 462 408  
Since 1 July heating degree days 7812 7746  
Cooling Degree Days 0 0  
Month to date cooling degree days 0 0  
Year to date cooling degree days 0 0  
Moisture  
Dew Point 15 °F    
Average Humidity 77    
Maximum Humidity 91    
Minimum Humidity 63    
Precipitation  
Precipitation 0.07 in 0.06 in 0.11 in (2015)
Month to date precipitation 1.93 0.83  
Year to date precipitation 3.64 3.82  
Sea Level Pressure  
Sea Level Pressure 29.96 in    
Wind  
Wind Speed 9 mph (WSW)    
Max Wind Speed 24 mph    
Max Gust Speed 32 mph    
Visibility 3 miles    
Events Fog , Snow    
T = Trace of Precipitation, MM = Missing Value Source: NWS Daily Summary

Daily Weather History Graph

Daily Weather History Graph

Search for Another Location

Airport or City:

Trip Planner

Search our weather history database for the weather conditions in past years. The results will help you decide how hot, cold, wet, or windy it might be!

Date:

Astronomy

Apr. 17, 2013 Rise Set
Actual Time 6:28 AM MDT 7:51 PM MDT
Civil Twilight 5:59 AM MDT 8:20 PM MDT
Nautical Twilight 5:25 AM MDT 8:54 PM MDT
Astronomical Twilight 4:49 AM MDT 9:30 PM MDT
Moon 11:44 AM MDT (4/17) 1:31 AM MDT (4/17)
Length of Visible Light 14h 20m
Length of Day
13h 23m
Waxing Crescent, 43% of the Moon is Illuminated
Apr 17
Waxing Crescent
Apr 18
First Quarter
Apr 25
Full
May 2
Last Quarter
May 9
New

Hourly Weather History & Observations

Time (MDT) Temp. Windchill Dew Point Humidity Pressure Visibility Wind Dir Wind Speed Gust Speed Precip Events Conditions
12:05 AM 21.2 °F 11.7 °F 17.6 °F 86% 29.91 in 1.8 mi SW 8.1 mph - 0.00 in Snow Light Snow
12:53 AM 21.0 °F 11.4 °F 17.1 °F 85% 30.04 in 1.0 mi WSW 8.1 mph - 0.00 in Snow Light Snow
1:00 AM 21.2 °F 11.7 °F 17.6 °F 86% 29.91 in 1.5 mi WSW 8.1 mph - 0.00 in Snow Light Snow
1:11 AM 21.2 °F 12.6 °F 17.6 °F 86% 29.90 in 1.8 mi West 6.9 mph - 0.00 in Snow Light Snow
1:33 AM 19.4 °F 10.4 °F 17.6 °F 93% 29.90 in 1.0 mi WSW 6.9 mph - 0.01 in Snow Light Snow
1:48 AM 19.4 °F 10.4 °F 17.6 °F 93% 29.90 in 1.5 mi WSW 6.9 mph - 0.01 in Snow Light Snow
1:49 AM 19.9 °F 11.1 °F 17.1 °F 89% 30.03 in 1.5 mi WSW 6.9 mph - 0.01 in Snow Light Snow
2:02 AM 19.4 °F 10.4 °F 15.8 °F 86% 29.89 in 2.0 mi WSW 6.9 mph - 0.00 in Snow Light Snow
2:09 AM 19.4 °F 9.5 °F 17.6 °F 93% 29.90 in 3.0 mi WSW 8.1 mph - 0.00 in Snow Light Snow
2:28 AM 19.4 °F 11.5 °F 15.8 °F 86% 29.89 in 2.5 mi WSW 5.8 mph - 0.00 in Snow Light Snow
2:48 AM 19.4 °F 12.8 °F 15.8 °F 86% 29.88 in 1.2 mi WSW 4.6 mph - 0.01 in Snow Light Snow
2:53 AM 19.9 °F 12.1 °F 16.0 °F 85% 30.01 in 1.5 mi WSW 5.8 mph - 0.01 in Snow Light Snow
3:48 AM 19.4 °F 9.5 °F 15.8 °F 86% 29.87 in 0.8 mi SW 8.1 mph - 0.00 in Snow Light Snow
3:53 AM 19.9 °F 10.1 °F 16.0 °F 85% 30.00 in 0.8 mi WSW 8.1 mph - 0.00 in Snow Light Snow
4:05 AM 19.4 °F 10.4 °F 15.8 °F 86% 29.87 in 0.8 mi WSW 6.9 mph - 0.01 in Snow Light Snow
4:17 AM 19.4 °F 10.4 °F 15.8 °F 86% 29.86 in 1.0 mi WSW 6.9 mph - 0.01 in Snow Light Snow
4:21 AM 19.4 °F 10.4 °F 15.8 °F 86% 29.87 in 0.8 mi SW 6.9 mph - 0.02 in Snow Light Snow
4:41 AM 19.4 °F 9.5 °F 15.8 °F 86% 29.87 in 1.0 mi SW 8.1 mph - 0.03 in Snow Light Snow
4:51 AM 19.4 °F 9.5 °F 15.8 °F 86% 29.86 in 1.2 mi WSW 8.1 mph - 0.03 in Snow Light Snow
4:53 AM 19.0 °F 9.0 °F 15.1 °F 85% 29.99 in 1.2 mi SW 8.1 mph - 0.03 in Snow Light Snow
5:01 AM 19.4 °F 10.4 °F 15.8 °F 86% 29.85 in 1.5 mi WSW 6.9 mph - 0.00 in Snow Light Snow
5:10 AM 19.4 °F 9.5 °F 15.8 °F 86% 29.86 in 2.0 mi SW 8.1 mph - 0.00 in Snow Light Snow
5:41 AM 19.4 °F 10.4 °F 15.8 °F 86% 29.85 in 1.5 mi SW 6.9 mph - 0.00 in Snow Light Snow
5:48 AM 19.4 °F 10.4 °F 15.8 °F 86% 29.84 in 1.0 mi SW 6.9 mph - 0.00 in Snow Light Snow
5:53 AM 19.0 °F 9.0 °F 15.1 °F 85% 29.98 in 1.0 mi WSW 8.1 mph - 0.00 in Snow Light Snow
6:09 AM 19.4 °F 10.4 °F 15.8 °F 86% 29.84 in 1.2 mi WSW 6.9 mph - 0.00 in Snow Light Snow
6:17 AM 19.4 °F 9.5 °F 15.8 °F 86% 29.84 in 1.2 mi WSW 8.1 mph - 0.00 in Snow Light Snow
6:33 AM 19.4 °F 8.6 °F 15.8 °F 86% 29.84 in 0.8 mi WSW 9.2 mph - 0.00 in Snow Light Snow
6:47 AM 19.4 °F 9.5 °F 15.8 °F 86% 29.84 in 0.5 mi WSW 8.1 mph - 0.01 in Fog , Snow Snow
6:53 AM 19.0 °F 8.2 °F 15.1 °F 85% 29.98 in 0.5 mi WSW 9.2 mph - 0.01 in Fog , Snow Snow
7:15 AM 19.4 °F 9.5 °F 15.8 °F 86% 29.83 in 0.5 mi WSW 8.1 mph - 0.00 in Fog , Snow Snow
7:22 AM 19.4 °F 8.6 °F 15.8 °F 86% 29.84 in 0.5 mi SW 9.2 mph - 0.00 in Fog , Snow Light Snow
7:53 AM 19.4 °F 8.6 °F 15.8 °F 86% 29.83 in 0.5 mi WSW 9.2 mph - N/A Fog , Snow Light Snow
8:06 AM 19.4 °F 7.9 °F 15.8 °F 86% 29.83 in 0.8 mi SW 10.4 mph - 0.00 in Snow Light Snow
8:18 AM 19.4 °F 7.9 °F 14.0 °F 80% 29.84 in 1.2 mi SW 10.4 mph - 0.00 in Snow Light Snow
8:30 AM 19.4 °F 6.6 °F 15.8 °F 86% 29.84 in 0.8 mi SW 12.7 mph - 0.00 in Snow Light Snow
8:53 AM 19.0 °F 5.0 °F 15.1 °F 85% 29.98 in 0.8 mi WSW 15.0 mph - 0.00 in Snow Light Snow
9:03 AM 19.4 °F 5.5 °F 15.8 °F 86% 29.84 in 0.5 mi WSW 15.0 mph - 0.00 in Fog , Snow Snow
9:16 AM 19.4 °F 5.0 °F 15.8 °F 86% 29.85 in 0.5 mi WSW 16.1 mph - 0.00 in Snow Snow
9:40 AM 19.4 °F 5.5 °F 15.8 °F 86% 29.85 in 0.5 mi WSW 15.0 mph - 0.00 in Snow Snow
9:53 AM 19.9 °F 6.7 °F 15.1 °F 81% 30.00 in 0.5 mi WSW 13.8 mph - 0.00 in Snow Snow
10:23 AM 19.4 °F 7.9 °F 15.8 °F 86% 29.86 in 0.5 mi West 10.4 mph - 0.00 in Fog , Snow Light Snow
10:53 AM 21.0 °F 10.6 °F 16.0 °F 81% 30.02 in 0.8 mi WSW 9.2 mph - 0.00 in Snow Light Snow
11:19 AM 21.2 °F 12.6 °F 17.6 °F 86% 29.88 in 1.0 mi West 6.9 mph - 0.00 in Snow Light Snow
11:31 AM 21.2 °F 11.7 °F 15.8 °F 80% 29.88 in 1.5 mi WSW 8.1 mph - 0.00 in Snow Light Snow
11:42 AM 21.2 °F 10.9 °F 17.6 °F 86% 29.88 in 1.5 mi WSW 9.2 mph - 0.00 in Snow Light Snow
11:53 AM 21.9 °F 13.4 °F 17.1 °F 82% 30.03 in 1.5 mi WSW 6.9 mph - 0.00 in Snow Light Snow
12:13 PM 23.0 °F 14.7 °F 17.6 °F 80% 29.88 in 3.0 mi West 6.9 mph - 0.00 in Snow Light Snow
12:53 PM 24.1 °F 15.2 °F 16.0 °F 71% 30.03 in 3.0 mi West 8.1 mph - 0.00 in Snow Light Snow
1:02 PM 24.8 °F 14.6 °F 17.6 °F 74% 29.89 in 2.0 mi West 10.4 mph - 0.00 in Snow Light Snow
1:44 PM 24.8 °F 14.0 °F 15.8 °F 69% 29.89 in 3.0 mi WNW 11.5 mph - 0.00 in Snow Light Snow
1:53 PM 25.0 °F 15.5 °F 17.1 °F 72% 30.04 in 4.0 mi West 9.2 mph - 0.00 in Snow Light Snow
2:53 PM 26.1 °F 16.8 °F 15.1 °F 63% 30.06 in 10.0 mi West 9.2 mph - 0.00 in   Overcast
3:50 PM 26.6 °F 17.5 °F 17.6 °F 69% 29.92 in 10.0 mi NNW 9.2 mph - N/A   Overcast
3:53 PM 27.0 °F 17.3 °F 18.0 °F 69% 30.05 in 10.0 mi WNW 10.4 mph - N/A   Overcast
4:22 PM 26.6 °F 15.7 °F 15.8 °F 64% 29.93 in 10.0 mi NW 12.7 mph 19.6 mph N/A   Overcast
4:53 PM 26.1 °F 13.6 °F 17.1 °F 69% 30.08 in 10.0 mi North 16.1 mph 19.6 mph N/A   Overcast
5:50 PM 24.8 °F 10.7 °F 15.8 °F 69% 29.97 in 2.0 mi NNW 19.6 mph 24.2 mph 0.00 in Snow Light Snow
5:53 PM 24.1 °F 9.8 °F 16.0 °F 71% 30.12 in 2.0 mi NNW 19.6 mph 25.3 mph 0.00 in Snow Light Snow
6:04 PM 24.8 °F 11.5 °F 15.8 °F 69% 29.98 in 6.0 mi NNW 17.3 mph 21.9 mph 0.00 in Snow Light Snow
6:53 PM 23.0 °F 9.6 °F 15.1 °F 72% 30.15 in 7.0 mi NW 16.1 mph - 0.00 in Snow Light Snow
7:03 PM 21.2 °F 7.8 °F 14.0 °F 74% 30.00 in 9.0 mi NW 15.0 mph 21.9 mph 0.00 in   Overcast
7:14 PM 21.2 °F 8.3 °F 14.0 °F 74% 30.00 in 10.0 mi NW 13.8 mph 24.2 mph 0.00 in   Overcast
7:53 PM 21.9 °F 11.7 °F 12.9 °F 68% 30.16 in 10.0 mi NNW 9.2 mph - 0.00 in   Overcast
8:34 PM 21.2 °F 13.6 °F 12.2 °F 68% 30.03 in 10.0 mi SW 5.8 mph - N/A   Overcast
8:53 PM 23.0 °F - 12.9 °F 65% 30.19 in 10.0 mi Calm Calm - N/A   Overcast
9:20 PM 19.4 °F 7.9 °F 12.2 °F 74% 30.05 in 9.0 mi SW 10.4 mph - 0.00 in   Overcast
9:53 PM 17.1 °F 11.7 °F 8.1 °F 68% 30.25 in 10.0 mi SSW 3.5 mph - 0.00 in   Partly Cloudy
10:53 PM 15.1 °F 6.4 °F 7.0 °F 70% 30.27 in 10.0 mi SSW 5.8 mph - N/A   Overcast
11:53 PM 14.0 °F 5.1 °F 7.0 °F 74% 30.28 in 10.0 mi SW 5.8 mph - N/A   Overcast